ePrivacy and GPDR Cookie Consent by Cookie Consent
EmailTwitter


Observations de surface / Europe / LIRF (16242)

Régions: Québec | Canada | États-Unis | Europe | France | UK | Ailleurs
Station
Affichage
Infos & localisation pour LIRF (16242) | Aide pour décoder les METARs

Observations prises le 2022-11-29 à 22H20 UTC (LIRF)

Température: 8.0 Celsius

Point de rosée: 5.0 Celsius

Humidité relative: 81%

Vents: Nord-nord-est à 9 km/h ou 5 noeuds.

Pression au niveau moyen de la mer: 101.00 kilopascals.

Observation METAR:

LIRF 292220Z 02005KT 340V040 CAVOK 08/05 Q1010 NOSIG=